sensor_id;sensor_type;location;lat;lon;timestamp;P1;durP1;ratioP1;P2;durP2;ratioP2
45254;SDS011;30989;52.078;21.014;2023-10-19T00:00:35;56.33;;;24.60;;
45254;SDS011;30989;52.078;21.014;2023-10-19T00:05:34;62.75;;;24.92;;
45254;SDS011;30989;52.078;21.014;2023-10-19T00:08:02;64.65;;;26.55;;
45254;SDS011;30989;52.078;21.014;2023-10-19T00:10:52;52.13;;;23.13;;
45254;SDS011;30989;52.078;21.014;2023-10-19T00:13:37;59.25;;;24.58;;
45254;SDS011;30989;52.078;21.014;2023-10-19T00:16:07;57.85;;;26.02;;
45254;SDS011;30989;52.078;21.014;2023-10-19T00:18:54;62.60;;;25.05;;
45254;SDS011;30989;52.078;21.014;2023-10-19T00:21:24;58.25;;;25.10;;
45254;SDS011;30989;52.078;21.014;2023-10-19T00:23:50;57.15;;;25.25;;
45254;SDS011;30989;52.078;21.014;2023-10-19T00:26:21;57.35;;;25.83;;
45254;SDS011;30989;52.078;21.014;2023-10-19T00:28:54;54.80;;;25.17;;
45254;SDS011;30989;52.078;21.014;2023-10-19T00:31:26;51.85;;;23.85;;
45254;SDS011;30989;52.078;21.014;2023-10-19T00:33:53;54.55;;;24.92;;
45254;SDS011;30989;52.078;21.014;2023-10-19T00:36:20;52.38;;;23.00;;
45254;SDS011;30989;52.078;21.014;2023-10-19T00:38:46;56.78;;;24.77;;
45254;SDS011;30989;52.078;21.014;2023-10-19T00:41:20;61.08;;;27.15;;
45254;SDS011;30989;52.078;21.014;2023-10-19T00:43:49;57.85;;;26.80;;
45254;SDS011;30989;52.078;21.014;2023-10-19T00:46:17;56.13;;;24.83;;
45254;SDS011;30989;52.078;21.014;2023-10-19T00:48:44;58.92;;;26.48;;
45254;SDS011;30989;52.078;21.014;2023-10-19T00:51:13;57.97;;;25.52;;
45254;SDS011;30989;52.078;21.014;2023-10-19T00:53:55;63.78;;;26.63;;
45254;SDS011;30989;52.078;21.014;2023-10-19T00:56:24;56.90;;;26.00;;
45254;SDS011;30989;52.078;21.014;2023-10-19T01:01:26;56.63;;;25.13;;
45254;SDS011;30989;52.078;21.014;2023-10-19T01:03:54;62.38;;;27.42;;
45254;SDS011;30989;52.078;21.014;2023-10-19T01:06:23;55.70;;;26.17;;
45254;SDS011;30989;52.078;21.014;2023-10-19T01:08:52;61.50;;;25.95;;
45254;SDS011;30989;52.078;21.014;2023-10-19T01:11:18;53.85;;;25.00;;
45254;SDS011;30989;52.078;21.014;2023-10-19T01:13:46;63.92;;;25.13;;
45254;SDS011;30989;52.078;21.014;2023-10-19T01:16:15;62.35;;;27.63;;
45254;SDS011;30989;52.078;21.014;2023-10-19T01:18:49;64.10;;;29.85;;
45254;SDS011;30989;52.078;21.014;2023-10-19T01:21:22;57.90;;;26.95;;
45254;SDS011;30989;52.078;21.014;2023-10-19T01:23:50;59.08;;;27.10;;
45254;SDS011;30989;52.078;21.014;2023-10-19T01:26:17;64.55;;;28.70;;
45254;SDS011;30989;52.078;21.014;2023-10-19T01:28:52;64.28;;;27.50;;
45254;SDS011;30989;52.078;21.014;2023-10-19T01:31:23;61.25;;;26.40;;
45254;SDS011;30989;52.078;21.014;2023-10-19T01:33:55;61.03;;;28.02;;
45254;SDS011;30989;52.078;21.014;2023-10-19T01:36:26;61.13;;;26.42;;
45254;SDS011;30989;52.078;21.014;2023-10-19T01:38:53;60.15;;;25.27;;
45254;SDS011;30989;52.078;21.014;2023-10-19T01:41:20;61.53;;;28.65;;
45254;SDS011;30989;52.078;21.014;2023-10-19T01:43:48;55.80;;;26.33;;
45254;SDS011;30989;52.078;21.014;2023-10-19T01:46:16;60.47;;;27.50;;
45254;SDS011;30989;52.078;21.014;2023-10-19T01:49:01;51.63;;;24.75;;
45254;SDS011;30989;52.078;21.014;2023-10-19T01:51:29;54.72;;;25.60;;
45254;SDS011;30989;52.078;21.014;2023-10-19T01:53:57;57.25;;;25.63;;
45254;SDS011;30989;52.078;21.014;2023-10-19T01:56:25;59.55;;;25.00;;
45254;SDS011;30989;52.078;21.014;2023-10-19T01:58:52;55.65;;;24.83;;
45254;SDS011;30989;52.078;21.014;2023-10-19T02:01:22;54.03;;;25.27;;
45254;SDS011;30989;52.078;21.014;2023-10-19T02:03:51;51.67;;;25.58;;
45254;SDS011;30989;52.078;21.014;2023-10-19T02:06:19;58.53;;;25.05;;
45254;SDS011;30989;52.078;21.014;2023-10-19T02:08:56;57.38;;;26.67;;
45254;SDS011;30989;52.078;21.014;2023-10-19T02:11:34;55.40;;;24.92;;
45254;SDS011;30989;52.078;21.014;2023-10-19T02:14:03;60.72;;;25.90;;
45254;SDS011;30989;52.078;21.014;2023-10-19T02:16:37;58.13;;;27.30;;
45254;SDS011;30989;52.078;21.014;2023-10-19T02:19:03;55.22;;;25.75;;
45254;SDS011;30989;52.078;21.014;2023-10-19T02:21:28;53.85;;;24.35;;
45254;SDS011;30989;52.078;21.014;2023-10-19T02:23:56;59.13;;;26.35;;
45254;SDS011;30989;52.078;21.014;2023-10-19T02:26:22;53.22;;;24.52;;
45254;SDS011;30989;52.078;21.014;2023-10-19T02:28:50;55.58;;;25.38;;
45254;SDS011;30989;52.078;21.014;2023-10-19T02:31:16;50.88;;;22.65;;
45254;SDS011;30989;52.078;21.014;2023-10-19T02:33:52;55.28;;;24.23;;
45254;SDS011;30989;52.078;21.014;2023-10-19T02:36:28;54.03;;;24.33;;
45254;SDS011;30989;52.078;21.014;2023-10-19T02:38:55;47.97;;;25.35;;
45254;SDS011;30989;52.078;21.014;2023-10-19T02:41:24;54.95;;;25.45;;
45254;SDS011;30989;52.078;21.014;2023-10-19T02:43:50;55.63;;;24.77;;
45254;SDS011;30989;52.078;21.014;2023-10-19T02:46:41;50.10;;;23.88;;
45254;SDS011;30989;52.078;21.014;2023-10-19T02:49:08;53.42;;;25.35;;
45254;SDS011;30989;52.078;21.014;2023-10-19T02:51:42;50.10;;;24.95;;
45254;SDS011;30989;52.078;21.014;2023-10-19T02:54:14;55.05;;;22.70;;
45254;SDS011;30989;52.078;21.014;2023-10-19T02:56:48;61.08;;;25.45;;
45254;SDS011;30989;52.078;21.014;2023-10-19T02:59:20;50.13;;;24.60;;
45254;SDS011;30989;52.078;21.014;2023-10-19T03:01:51;52.45;;;24.00;;
45254;SDS011;30989;52.078;21.014;2023-10-19T03:06:45;47.65;;;23.50;;
45254;SDS011;30989;52.078;21.014;2023-10-19T03:09:11;53.47;;;24.70;;
45254;SDS011;30989;52.078;21.014;2023-10-19T03:11:49;51.10;;;23.92;;
45254;SDS011;30989;52.078;21.014;2023-10-19T03:14:18;45.67;;;21.63;;
45254;SDS011;30989;52.078;21.014;2023-10-19T03:16:44;48.33;;;23.38;;
45254;SDS011;30989;52.078;21.014;2023-10-19T03:19:11;50.85;;;24.20;;
45254;SDS011;30989;52.078;21.014;2023-10-19T03:21:39;46.28;;;20.42;;
45254;SDS011;30989;52.078;21.014;2023-10-19T03:24:14;51.08;;;22.98;;
45254;SDS011;30989;52.078;21.014;2023-10-19T03:27:04;38.45;;;18.05;;
45254;SDS011;30989;52.078;21.014;2023-10-19T03:29:49;43.78;;;19.73;;
45254;SDS011;30989;52.078;21.014;2023-10-19T03:32:20;52.35;;;24.95;;
45254;SDS011;30989;52.078;21.014;2023-10-19T03:34:53;62.60;;;25.90;;
45254;SDS011;30989;52.078;21.014;2023-10-19T03:37:23;47.70;;;21.38;;
45254;SDS011;30989;52.078;21.014;2023-10-19T03:39:51;44.00;;;18.00;;
45254;SDS011;30989;52.078;21.014;2023-10-19T03:42:17;49.13;;;21.05;;
45254;SDS011;30989;52.078;21.014;2023-10-19T03:44:42;42.45;;;20.42;;
45254;SDS011;30989;52.078;21.014;2023-10-19T03:47:11;43.88;;;20.92;;
45254;SDS011;30989;52.078;21.014;2023-10-19T03:49:43;47.33;;;21.92;;
45254;SDS011;30989;52.078;21.014;2023-10-19T03:52:09;45.28;;;20.70;;
45254;SDS011;30989;52.078;21.014;2023-10-19T03:54:35;52.22;;;23.65;;
45254;SDS011;30989;52.078;21.014;2023-10-19T03:59:44;41.97;;;20.55;;
45254;SDS011;30989;52.078;21.014;2023-10-19T04:02:12;50.92;;;22.48;;
45254;SDS011;30989;52.078;21.014;2023-10-19T04:04:46;47.55;;;22.02;;
45254;SDS011;30989;52.078;21.014;2023-10-19T04:07:16;50.25;;;22.25;;
45254;SDS011;30989;52.078;21.014;2023-10-19T04:09:46;43.90;;;19.30;;
45254;SDS011;30989;52.078;21.014;2023-10-19T04:12:34;47.17;;;20.83;;
45254;SDS011;30989;52.078;21.014;2023-10-19T04:15:02;50.72;;;21.83;;
45254;SDS011;30989;52.078;21.014;2023-10-19T04:17:41;55.60;;;22.83;;
45254;SDS011;30989;52.078;21.014;2023-10-19T04:20:14;55.55;;;23.52;;
45254;SDS011;30989;52.078;21.014;2023-10-19T04:22:42;49.40;;;22.40;;
45254;SDS011;30989;52.078;21.014;2023-10-19T04:25:08;52.33;;;22.33;;
45254;SDS011;30989;52.078;21.014;2023-10-19T04:27:37;59.47;;;23.10;;
45254;SDS011;30989;52.078;21.014;2023-10-19T04:30:02;76.68;;;29.58;;
45254;SDS011;30989;52.078;21.014;2023-10-19T04:32:28;46.70;;;21.80;;
45254;SDS011;30989;52.078;21.014;2023-10-19T04:34:54;48.72;;;20.27;;
45254;SDS011;30989;52.078;21.014;2023-10-19T04:37:19;48.35;;;23.27;;
45254;SDS011;30989;52.078;21.014;2023-10-19T04:39:47;48.47;;;23.95;;
45254;SDS011;30989;52.078;21.014;2023-10-19T04:42:14;47.67;;;21.52;;
45254;SDS011;30989;52.078;21.014;2023-10-19T04:44:40;45.75;;;20.45;;
45254;SDS011;30989;52.078;21.014;2023-10-19T04:47:06;39.53;;;19.45;;
45254;SDS011;30989;52.078;21.014;2023-10-19T04:49:31;38.03;;;17.05;;
45254;SDS011;30989;52.078;21.014;2023-10-19T04:51:57;53.70;;;22.67;;
45254;SDS011;30989;52.078;21.014;2023-10-19T04:54:22;44.50;;;21.05;;
45254;SDS011;30989;52.078;21.014;2023-10-19T04:56:48;44.38;;;20.33;;
45254;SDS011;30989;52.078;21.014;2023-10-19T04:59:13;41.10;;;20.10;;
45254;SDS011;30989;52.078;21.014;2023-10-19T05:01:38;41.92;;;19.30;;
45254;SDS011;30989;52.078;21.014;2023-10-19T05:04:06;40.83;;;18.15;;
45254;SDS011;30989;52.078;21.014;2023-10-19T05:06:31;38.20;;;19.88;;
45254;SDS011;30989;52.078;21.014;2023-10-19T05:08:57;52.33;;;23.45;;
45254;SDS011;30989;52.078;21.014;2023-10-19T05:11:22;46.90;;;21.58;;
45254;SDS011;30989;52.078;21.014;2023-10-19T05:13:48;46.42;;;22.65;;
45254;SDS011;30989;52.078;21.014;2023-10-19T05:16:13;47.30;;;21.95;;
45254;SDS011;30989;52.078;21.014;2023-10-19T05:18:39;50.13;;;22.05;;
45254;SDS011;30989;52.078;21.014;2023-10-19T05:21:04;49.20;;;22.92;;
45254;SDS011;30989;52.078;21.014;2023-10-19T05:23:30;53.88;;;24.98;;
45254;SDS011;30989;52.078;21.014;2023-10-19T05:26:00;48.97;;;22.40;;
45254;SDS011;30989;52.078;21.014;2023-10-19T05:28:27;46.50;;;20.77;;
45254;SDS011;30989;52.078;21.014;2023-10-19T05:30:53;45.25;;;21.90;;
45254;SDS011;30989;52.078;21.014;2023-10-19T05:33:19;40.58;;;20.20;;
45254;SDS011;30989;52.078;21.014;2023-10-19T05:35:49;45.33;;;19.52;;
45254;SDS011;30989;52.078;21.014;2023-10-19T05:38:15;36.92;;;16.48;;
45254;SDS011;30989;52.078;21.014;2023-10-19T05:40:45;41.70;;;19.60;;
45254;SDS011;30989;52.078;21.014;2023-10-19T05:43:10;47.22;;;22.15;;
45254;SDS011;30989;52.078;21.014;2023-10-19T05:45:37;41.83;;;18.77;;
45254;SDS011;30989;52.078;21.014;2023-10-19T05:48:04;52.50;;;21.48;;
45254;SDS011;30989;52.078;21.014;2023-10-19T05:50:32;51.92;;;21.20;;
45254;SDS011;30989;52.078;21.014;2023-10-19T05:52:58;38.53;;;18.48;;
45254;SDS011;30989;52.078;21.014;2023-10-19T05:55:25;48.17;;;19.38;;
45254;SDS011;30989;52.078;21.014;2023-10-19T05:57:51;41.42;;;20.23;;
45254;SDS011;30989;52.078;21.014;2023-10-19T06:00:16;44.03;;;19.17;;
45254;SDS011;30989;52.078;21.014;2023-10-19T06:02:43;45.22;;;17.63;;
45254;SDS011;30989;52.078;21.014;2023-10-19T06:05:10;44.85;;;20.83;;
45254;SDS011;30989;52.078;21.014;2023-10-19T06:07:36;53.10;;;20.48;;
45254;SDS011;30989;52.078;21.014;2023-10-19T06:10:02;50.47;;;20.60;;
45254;SDS011;30989;52.078;21.014;2023-10-19T06:12:31;44.00;;;18.45;;
45254;SDS011;30989;52.078;21.014;2023-10-19T06:14:58;42.38;;;17.23;;
45254;SDS011;30989;52.078;21.014;2023-10-19T06:17:23;41.50;;;19.83;;
45254;SDS011;30989;52.078;21.014;2023-10-19T06:19:49;50.92;;;22.83;;
45254;SDS011;30989;52.078;21.014;2023-10-19T06:22:14;36.28;;;17.38;;
45254;SDS011;30989;52.078;21.014;2023-10-19T06:24:41;43.13;;;17.90;;
45254;SDS011;30989;52.078;21.014;2023-10-19T06:27:09;42.05;;;19.90;;
45254;SDS011;30989;52.078;21.014;2023-10-19T06:29:35;47.10;;;21.15;;
45254;SDS011;30989;52.078;21.014;2023-10-19T06:32:00;45.72;;;19.20;;
45254;SDS011;30989;52.078;21.014;2023-10-19T06:34:26;41.63;;;18.75;;
45254;SDS011;30989;52.078;21.014;2023-10-19T06:36:52;42.13;;;18.95;;
45254;SDS011;30989;52.078;21.014;2023-10-19T06:39:19;38.47;;;17.20;;
45254;SDS011;30989;52.078;21.014;2023-10-19T06:41:46;40.53;;;18.35;;
45254;SDS011;30989;52.078;21.014;2023-10-19T06:44:11;48.65;;;21.48;;
45254;SDS011;30989;52.078;21.014;2023-10-19T06:46:38;52.45;;;19.88;;
45254;SDS011;30989;52.078;21.014;2023-10-19T06:49:04;38.58;;;16.95;;
45254;SDS011;30989;52.078;21.014;2023-10-19T06:51:30;38.38;;;17.88;;
45254;SDS011;30989;52.078;21.014;2023-10-19T06:53:55;48.42;;;22.30;;
45254;SDS011;30989;52.078;21.014;2023-10-19T06:56:21;44.53;;;21.08;;
45254;SDS011;30989;52.078;21.014;2023-10-19T06:58:46;48.42;;;21.67;;
45254;SDS011;30989;52.078;21.014;2023-10-19T07:01:13;38.85;;;18.38;;
45254;SDS011;30989;52.078;21.014;2023-10-19T07:03:41;38.35;;;17.48;;
45254;SDS011;30989;52.078;21.014;2023-10-19T07:06:07;45.72;;;20.10;;
45254;SDS011;30989;52.078;21.014;2023-10-19T07:08:33;41.88;;;18.42;;
45254;SDS011;30989;52.078;21.014;2023-10-19T07:10:58;51.55;;;22.50;;
45254;SDS011;30989;52.078;21.014;2023-10-19T07:13:25;38.88;;;17.75;;
45254;SDS011;30989;52.078;21.014;2023-10-19T07:15:51;46.67;;;20.02;;
45254;SDS011;30989;52.078;21.014;2023-10-19T07:18:16;50.63;;;21.48;;
45254;SDS011;30989;52.078;21.014;2023-10-19T07:20:42;46.95;;;19.35;;
45254;SDS011;30989;52.078;21.014;2023-10-19T07:23:08;42.15;;;18.33;;
45254;SDS011;30989;52.078;21.014;2023-10-19T07:25:52;46.47;;;20.13;;
45254;SDS011;30989;52.078;21.014;2023-10-19T07:28:24;49.60;;;21.83;;
45254;SDS011;30989;52.078;21.014;2023-10-19T07:30:51;35.00;;;16.02;;
45254;SDS011;30989;52.078;21.014;2023-10-19T07:33:18;39.47;;;18.00;;
45254;SDS011;30989;52.078;21.014;2023-10-19T07:35:45;36.30;;;19.08;;
45254;SDS011;30989;52.078;21.014;2023-10-19T07:38:15;37.28;;;18.35;;
45254;SDS011;30989;52.078;21.014;2023-10-19T07:40:42;41.30;;;18.85;;
45254;SDS011;30989;52.078;21.014;2023-10-19T07:43:08;38.25;;;19.30;;
45254;SDS011;30989;52.078;21.014;2023-10-19T07:45:35;36.38;;;18.25;;
45254;SDS011;30989;52.078;21.014;2023-10-19T07:48:02;40.55;;;20.10;;
45254;SDS011;30989;52.078;21.014;2023-10-19T07:50:36;34.78;;;17.88;;
45254;SDS011;30989;52.078;21.014;2023-10-19T07:53:03;28.33;;;16.00;;
45254;SDS011;30989;52.078;21.014;2023-10-19T07:55:29;41.40;;;20.25;;
45254;SDS011;30989;52.078;21.014;2023-10-19T07:57:57;31.10;;;14.35;;
45254;SDS011;30989;52.078;21.014;2023-10-19T08:00:25;38.28;;;17.27;;
45254;SDS011;30989;52.078;21.014;2023-10-19T08:02:54;31.42;;;16.33;;
45254;SDS011;30989;52.078;21.014;2023-10-19T08:05:20;36.65;;;17.17;;
45254;SDS011;30989;52.078;21.014;2023-10-19T08:07:46;31.85;;;16.17;;
45254;SDS011;30989;52.078;21.014;2023-10-19T08:10:12;43.55;;;17.77;;
45254;SDS011;30989;52.078;21.014;2023-10-19T08:12:42;33.58;;;14.77;;
45254;SDS011;30989;52.078;21.014;2023-10-19T08:15:10;30.35;;;15.52;;
45254;SDS011;30989;52.078;21.014;2023-10-19T08:17:40;29.83;;;15.45;;
45254;SDS011;30989;52.078;21.014;2023-10-19T08:20:07;33.58;;;15.18;;
45254;SDS011;30989;52.078;21.014;2023-10-19T08:22:44;33.33;;;16.65;;
45254;SDS011;30989;52.078;21.014;2023-10-19T08:25:12;28.65;;;12.25;;
45254;SDS011;30989;52.078;21.014;2023-10-19T08:27:43;24.83;;;13.50;;
45254;SDS011;30989;52.078;21.014;2023-10-19T08:30:11;24.23;;;13.80;;
45254;SDS011;30989;52.078;21.014;2023-10-19T08:32:38;32.88;;;13.68;;
45254;SDS011;30989;52.078;21.014;2023-10-19T08:35:05;29.38;;;13.82;;
45254;SDS011;30989;52.078;21.014;2023-10-19T08:37:31;35.33;;;15.68;;
45254;SDS011;30989;52.078;21.014;2023-10-19T08:39:56;31.02;;;13.57;;
45254;SDS011;30989;52.078;21.014;2023-10-19T08:42:23;28.35;;;13.57;;
45254;SDS011;30989;52.078;21.014;2023-10-19T08:44:48;26.55;;;13.35;;
45254;SDS011;30989;52.078;21.014;2023-10-19T08:47:14;25.77;;;12.70;;
45254;SDS011;30989;52.078;21.014;2023-10-19T08:49:40;31.90;;;14.65;;
45254;SDS011;30989;52.078;21.014;2023-10-19T08:52:07;24.27;;;13.05;;
45254;SDS011;30989;52.078;21.014;2023-10-19T08:54:33;30.75;;;13.95;;
45254;SDS011;30989;52.078;21.014;2023-10-19T08:56:59;25.27;;;11.93;;
45254;SDS011;30989;52.078;21.014;2023-10-19T08:59:25;25.10;;;11.70;;
45254;SDS011;30989;52.078;21.014;2023-10-19T09:01:59;24.85;;;12.10;;
45254;SDS011;30989;52.078;21.014;2023-10-19T09:04:25;26.33;;;12.63;;
45254;SDS011;30989;52.078;21.014;2023-10-19T09:06:52;24.95;;;11.45;;
45254;SDS011;30989;52.078;21.014;2023-10-19T09:09:20;26.58;;;12.35;;
45254;SDS011;30989;52.078;21.014;2023-10-19T09:11:46;20.63;;;10.50;;
45254;SDS011;30989;52.078;21.014;2023-10-19T09:14:13;19.75;;;9.52;;
45254;SDS011;30989;52.078;21.014;2023-10-19T09:16:55;21.17;;;10.50;;
45254;SDS011;30989;52.078;21.014;2023-10-19T09:19:37;21.35;;;11.23;;
45254;SDS011;30989;52.078;21.014;2023-10-19T09:22:07;24.42;;;9.15;;
45254;SDS011;30989;52.078;21.014;2023-10-19T09:24:41;21.17;;;9.10;;
45254;SDS011;30989;52.078;21.014;2023-10-19T09:27:07;29.40;;;10.98;;
45254;SDS011;30989;52.078;21.014;2023-10-19T09:29:33;21.30;;;10.68;;
45254;SDS011;30989;52.078;21.014;2023-10-19T09:31:59;16.60;;;8.93;;
45254;SDS011;30989;52.078;21.014;2023-10-19T09:34:29;19.35;;;10.77;;
45254;SDS011;30989;52.078;21.014;2023-10-19T09:37:01;20.73;;;9.00;;
45254;SDS011;30989;52.078;21.014;2023-10-19T09:39:31;21.25;;;9.43;;
45254;SDS011;30989;52.078;21.014;2023-10-19T09:42:07;15.10;;;7.55;;
45254;SDS011;30989;52.078;21.014;2023-10-19T09:44:42;21.30;;;8.90;;
45254;SDS011;30989;52.078;21.014;2023-10-19T09:47:10;17.40;;;8.05;;
45254;SDS011;30989;52.078;21.014;2023-10-19T09:50:00;15.98;;;7.43;;
45254;SDS011;30989;52.078;21.014;2023-10-19T09:52:26;16.25;;;7.85;;
45254;SDS011;30989;52.078;21.014;2023-10-19T09:55:10;20.92;;;9.65;;
45254;SDS011;30989;52.078;21.014;2023-10-19T09:57:44;17.25;;;8.18;;
45254;SDS011;30989;52.078;21.014;2023-10-19T10:00:16;17.13;;;7.68;;
45254;SDS011;30989;52.078;21.014;2023-10-19T10:02:48;13.15;;;6.65;;
45254;SDS011;30989;52.078;21.014;2023-10-19T10:15:51;22.88;;;7.93;;
45254;SDS011;30989;52.078;21.014;2023-10-19T10:18:18;17.20;;;7.53;;
45254;SDS011;30989;52.078;21.014;2023-10-19T10:20:44;15.18;;;6.78;;
45254;SDS011;30989;52.078;21.014;2023-10-19T10:23:23;16.92;;;6.82;;
45254;SDS011;30989;52.078;21.014;2023-10-19T10:25:57;19.83;;;7.60;;
45254;SDS011;30989;52.078;21.014;2023-10-19T10:28:23;21.67;;;7.75;;
45254;SDS011;30989;52.078;21.014;2023-10-19T10:33:46;12.43;;;6.03;;
45254;SDS011;30989;52.078;21.014;2023-10-19T10:36:20;13.30;;;5.97;;
45254;SDS011;30989;52.078;21.014;2023-10-19T10:38:47;12.50;;;6.32;;
45254;SDS011;30989;52.078;21.014;2023-10-19T10:41:23;13.10;;;5.78;;
45254;SDS011;30989;52.078;21.014;2023-10-19T10:43:57;15.50;;;7.07;;
45254;SDS011;30989;52.078;21.014;2023-10-19T10:46:24;14.52;;;6.47;;
45254;SDS011;30989;52.078;21.014;2023-10-19T10:48:52;15.57;;;5.47;;
45254;SDS011;30989;52.078;21.014;2023-10-19T10:51:25;14.23;;;6.45;;
45254;SDS011;30989;52.078;21.014;2023-10-19T10:53:57;12.07;;;6.32;;
45254;SDS011;30989;52.078;21.014;2023-10-19T10:56:23;13.40;;;6.40;;
45254;SDS011;30989;52.078;21.014;2023-10-19T10:58:49;12.13;;;6.15;;
45254;SDS011;30989;52.078;21.014;2023-10-19T11:01:24;10.18;;;5.22;;
45254;SDS011;30989;52.078;21.014;2023-10-19T11:04:04;12.25;;;5.32;;
45254;SDS011;30989;52.078;21.014;2023-10-19T11:06:45;13.80;;;6.07;;
45254;SDS011;30989;52.078;21.014;2023-10-19T11:09:12;9.88;;;5.25;;
45254;SDS011;30989;52.078;21.014;2023-10-19T11:11:37;9.90;;;4.93;;
45254;SDS011;30989;52.078;21.014;2023-10-19T11:14:10;17.40;;;6.55;;
45254;SDS011;30989;52.078;21.014;2023-10-19T11:16:36;13.43;;;5.47;;
45254;SDS011;30989;52.078;21.014;2023-10-19T11:19:04;14.65;;;5.90;;
45254;SDS011;30989;52.078;21.014;2023-10-19T11:21:29;11.15;;;5.78;;
45254;SDS011;30989;52.078;21.014;2023-10-19T11:23:55;11.48;;;5.68;;
45254;SDS011;30989;52.078;21.014;2023-10-19T11:26:22;17.13;;;7.85;;
45254;SDS011;30989;52.078;21.014;2023-10-19T11:29:01;11.80;;;6.40;;
45254;SDS011;30989;52.078;21.014;2023-10-19T11:31:29;14.75;;;7.40;;
45254;SDS011;30989;52.078;21.014;2023-10-19T11:34:02;11.80;;;6.28;;
45254;SDS011;30989;52.078;21.014;2023-10-19T11:36:28;10.88;;;5.72;;
45254;SDS011;30989;52.078;21.014;2023-10-19T11:38:54;11.65;;;6.30;;
45254;SDS011;30989;52.078;21.014;2023-10-19T11:41:20;11.95;;;6.13;;
45254;SDS011;30989;52.078;21.014;2023-10-19T11:43:46;11.00;;;5.72;;
45254;SDS011;30989;52.078;21.014;2023-10-19T11:46:13;14.77;;;6.43;;
45254;SDS011;30989;52.078;21.014;2023-10-19T11:48:40;12.55;;;5.57;;
45254;SDS011;30989;52.078;21.014;2023-10-19T11:51:07;10.73;;;5.60;;
45254;SDS011;30989;52.078;21.014;2023-10-19T11:53:34;13.18;;;6.25;;
45254;SDS011;30989;52.078;21.014;2023-10-19T11:56:02;10.77;;;5.28;;
45254;SDS011;30989;52.078;21.014;2023-10-19T11:58:32;16.77;;;7.50;;
45254;SDS011;30989;52.078;21.014;2023-10-19T12:00:59;14.30;;;6.82;;
45254;SDS011;30989;52.078;21.014;2023-10-19T12:03:25;14.95;;;6.35;;
45254;SDS011;30989;52.078;21.014;2023-10-19T12:05:51;14.30;;;6.40;;
45254;SDS011;30989;52.078;21.014;2023-10-19T12:08:21;12.73;;;6.25;;
45254;SDS011;30989;52.078;21.014;2023-10-19T12:10:47;19.98;;;6.95;;
45254;SDS011;30989;52.078;21.014;2023-10-19T12:13:12;13.13;;;6.40;;
45254;SDS011;30989;52.078;21.014;2023-10-19T12:15:38;16.00;;;6.82;;
45254;SDS011;30989;52.078;21.014;2023-10-19T12:18:04;13.80;;;6.85;;
45254;SDS011;30989;52.078;21.014;2023-10-19T12:20:30;20.77;;;8.13;;
45254;SDS011;30989;52.078;21.014;2023-10-19T12:22:59;16.00;;;7.05;;
45254;SDS011;30989;52.078;21.014;2023-10-19T12:25:25;15.93;;;6.65;;
45254;SDS011;30989;52.078;21.014;2023-10-19T12:27:54;22.33;;;11.60;;
45254;SDS011;30989;52.078;21.014;2023-10-19T12:30:21;17.15;;;7.55;;
45254;SDS011;30989;52.078;21.014;2023-10-19T12:32:50;16.50;;;7.18;;
45254;SDS011;30989;52.078;21.014;2023-10-19T12:35:16;14.38;;;6.75;;
45254;SDS011;30989;52.078;21.014;2023-10-19T12:37:45;19.27;;;7.40;;
45254;SDS011;30989;52.078;21.014;2023-10-19T12:40:17;15.65;;;7.00;;
45254;SDS011;30989;52.078;21.014;2023-10-19T12:42:55;20.00;;;7.50;;
45254;SDS011;30989;52.078;21.014;2023-10-19T12:45:24;12.73;;;6.65;;
45254;SDS011;30989;52.078;21.014;2023-10-19T12:47:50;17.30;;;6.65;;
45254;SDS011;30989;52.078;21.014;2023-10-19T12:50:19;12.93;;;6.55;;
45254;SDS011;30989;52.078;21.014;2023-10-19T12:52:51;17.23;;;7.78;;
45254;SDS011;30989;52.078;21.014;2023-10-19T12:55:17;17.40;;;7.30;;
45254;SDS011;30989;52.078;21.014;2023-10-19T12:57:43;19.65;;;8.38;;
45254;SDS011;30989;52.078;21.014;2023-10-19T13:00:09;16.30;;;6.70;;
45254;SDS011;30989;52.078;21.014;2023-10-19T13:02:53;17.75;;;6.97;;
45254;SDS011;30989;52.078;21.014;2023-10-19T13:05:36;16.75;;;7.28;;
45254;SDS011;30989;52.078;21.014;2023-10-19T13:08:02;18.15;;;7.00;;
45254;SDS011;30989;52.078;21.014;2023-10-19T13:10:54;15.70;;;7.97;;
45254;SDS011;30989;52.078;21.014;2023-10-19T13:13:20;16.73;;;7.85;;
45254;SDS011;30989;52.078;21.014;2023-10-19T13:15:49;15.65;;;7.07;;
45254;SDS011;30989;52.078;21.014;2023-10-19T13:18:15;16.05;;;7.45;;
45254;SDS011;30989;52.078;21.014;2023-10-19T13:20:52;19.48;;;8.77;;
45254;SDS011;30989;52.078;21.014;2023-10-19T13:23:19;16.85;;;7.57;;
45254;SDS011;30989;52.078;21.014;2023-10-19T13:25:48;18.40;;;7.72;;
45254;SDS011;30989;52.078;21.014;2023-10-19T13:28:16;17.25;;;6.55;;
45254;SDS011;30989;52.078;21.014;2023-10-19T13:30:45;19.02;;;7.95;;
45254;SDS011;30989;52.078;21.014;2023-10-19T13:33:12;12.95;;;6.53;;
45254;SDS011;30989;52.078;21.014;2023-10-19T13:35:42;15.30;;;7.10;;
45254;SDS011;30989;52.078;21.014;2023-10-19T13:38:10;15.85;;;7.93;;
45254;SDS011;30989;52.078;21.014;2023-10-19T13:40:37;16.50;;;7.82;;
45254;SDS011;30989;52.078;21.014;2023-10-19T13:43:03;16.83;;;7.20;;
45254;SDS011;30989;52.078;21.014;2023-10-19T13:45:33;15.07;;;7.00;;
45254;SDS011;30989;52.078;21.014;2023-10-19T13:48:03;17.20;;;6.57;;
45254;SDS011;30989;52.078;21.014;2023-10-19T13:50:32;18.52;;;7.72;;
45254;SDS011;30989;52.078;21.014;2023-10-19T13:52:59;14.77;;;7.72;;
45254;SDS011;30989;52.078;21.014;2023-10-19T13:55:30;17.83;;;7.97;;
45254;SDS011;30989;52.078;21.014;2023-10-19T13:57:56;14.32;;;7.43;;
45254;SDS011;30989;52.078;21.014;2023-10-19T14:00:22;23.95;;;7.80;;
45254;SDS011;30989;52.078;21.014;2023-10-19T14:02:52;18.67;;;6.35;;
45254;SDS011;30989;52.078;21.014;2023-10-19T14:05:19;19.60;;;7.35;;
45254;SDS011;30989;52.078;21.014;2023-10-19T14:07:45;16.63;;;7.43;;
45254;SDS011;30989;52.078;21.014;2023-10-19T14:10:12;16.45;;;8.40;;
45254;SDS011;30989;52.078;21.014;2023-10-19T14:12:39;15.43;;;7.40;;
45254;SDS011;30989;52.078;21.014;2023-10-19T14:15:08;16.52;;;7.03;;
45254;SDS011;30989;52.078;21.014;2023-10-19T14:17:55;15.93;;;7.95;;
45254;SDS011;30989;52.078;21.014;2023-10-19T14:20:25;18.75;;;6.85;;
45254;SDS011;30989;52.078;21.014;2023-10-19T14:22:54;18.83;;;7.72;;
45254;SDS011;30989;52.078;21.014;2023-10-19T14:25:20;14.25;;;6.25;;
45254;SDS011;30989;52.078;21.014;2023-10-19T14:27:48;14.00;;;6.63;;
45254;SDS011;30989;52.078;21.014;2023-10-19T14:30:15;16.88;;;6.97;;
45254;SDS011;30989;52.078;21.014;2023-10-19T14:35:14;17.80;;;7.30;;
45254;SDS011;30989;52.078;21.014;2023-10-19T14:37:42;17.55;;;6.88;;
45254;SDS011;30989;52.078;21.014;2023-10-19T14:40:13;18.27;;;6.47;;
45254;SDS011;30989;52.078;21.014;2023-10-19T14:42:40;12.57;;;6.20;;
45254;SDS011;30989;52.078;21.014;2023-10-19T14:45:16;17.73;;;8.98;;
45254;SDS011;30989;52.078;21.014;2023-10-19T14:47:49;17.20;;;8.27;;
45254;SDS011;30989;52.078;21.014;2023-10-19T14:50:20;18.20;;;7.60;;